Time;durP1;ratioP1;P1;durP2;ratioP2;P2;SDS_P1;SDS_P2;PMS_P1;PMS_P2;Temp;Humidity;BMP_temperature;BMP_pressure;BME280_temperature;BME280_humidity;BME280_pressure;Samples;Min_cycle;Max_cycle;Signal;HPM_P1;HPM_P2
2021/12/08 00:00:30;;;;;;;8.75;3.90;;;;;;;;;;5052661;28;20044;-70
2021/12/08 00:02:56;;;;;;;6.28;3.65;;;;;;;;;;5062953;28;20203;-69
2021/12/08 00:05:22;;;;;;;10.85;4.80;;;;;;;;;;5059827;28;20040;-69
2021/12/08 00:07:49;;;;;;;7.35;4.00;;;;;;;;;;5069078;28;20139;-69
2021/12/08 00:13:05;;;;;;;8.57;4.07;;;;;;;;;;5062332;28;20391;-69
2021/12/08 00:15:32;;;;;;;10.25;4.32;;;;;;;;;;5068171;28;20055;-69
2021/12/08 00:17:59;;;;;;;7.90;4.20;;;;;;;;;;5057567;28;20131;-70
2021/12/08 00:20:27;;;;;;;9.38;3.92;;;;;;;;;;5071554;28;20040;-71
2021/12/08 00:22:54;;;;;;;8.52;3.78;;;;;;;;;;5062304;28;20028;-71
2021/12/08 00:25:19;;;;;;;13.10;4.45;;;;;;;;;;5072095;28;20091;-71
2021/12/08 00:27:45;;;;;;;10.77;4.10;;;;;;;;;;5065707;28;20511;-71
2021/12/08 00:30:11;;;;;;;9.27;3.90;;;;;;;;;;5052191;28;20041;-71
2021/12/08 00:32:37;;;;;;;13.65;4.22;;;;;;;;;;5061064;28;20047;-71
2021/12/08 00:35:04;;;;;;;10.43;4.20;;;;;;;;;;5071457;28;20036;-71
2021/12/08 00:37:30;;;;;;;6.28;3.30;;;;;;;;;;5071407;28;20482;-72
2021/12/08 00:39:56;;;;;;;8.30;4.38;;;;;;;;;;5070783;28;20047;-71
2021/12/08 00:42:23;;;;;;;10.07;3.45;;;;;;;;;;5064330;28;20037;-71
2021/12/08 00:44:48;;;;;;;9.32;4.30;;;;;;;;;;5071852;28;20041;-71
2021/12/08 00:47:15;;;;;;;6.22;3.45;;;;;;;;;;5070748;28;20480;-71
2021/12/08 00:49:41;;;;;;;11.15;3.80;;;;;;;;;;5068179;28;20040;-71
2021/12/08 00:52:07;;;;;;;6.82;3.38;;;;;;;;;;5061247;28;20062;-71
2021/12/08 00:54:34;;;;;;;7.57;4.38;;;;;;;;;;5071651;28;20041;-71
2021/12/08 00:57:00;;;;;;;7.13;3.78;;;;;;;;;;5070929;28;20044;-71
2021/12/08 00:59:27;;;;;;;8.80;4.03;;;;;;;;;;5066194;28;20171;-70
2021/12/08 01:01:54;;;;;;;7.43;4.05;;;;;;;;;;5064034;28;20048;-71
2021/12/08 01:04:20;;;;;;;6.50;3.80;;;;;;;;;;5069040;28;20072;-71
2021/12/08 01:06:45;;;;;;;7.45;3.67;;;;;;;;;;5071563;28;20070;-71
2021/12/08 01:09:15;;;;;;;10.10;4.15;;;;;;;;;;5068798;28;20040;-72
2021/12/08 01:11:41;;;;;;;8.98;3.72;;;;;;;;;;5064903;28;20049;-71
2021/12/08 01:14:07;;;;;;;7.18;3.70;;;;;;;;;;5051379;28;20296;-71
2021/12/08 01:16:33;;;;;;;9.32;3.70;;;;;;;;;;5058709;28;20305;-71
2021/12/08 01:18:59;;;;;;;6.35;3.33;;;;;;;;;;5063229;28;20471;-71
2021/12/08 01:21:25;;;;;;;8.38;3.97;;;;;;;;;;5068389;28;20508;-72
2021/12/08 01:23:51;;;;;;;7.40;3.85;;;;;;;;;;5054510;28;20410;-71
2021/12/08 01:26:17;;;;;;;10.00;3.22;;;;;;;;;;5051137;28;20037;-71
2021/12/08 01:28:44;;;;;;;9.25;4.03;;;;;;;;;;5060858;28;20040;-71
2021/12/08 01:31:10;;;;;;;8.00;3.92;;;;;;;;;;5068876;28;20036;-71
2021/12/08 01:33:37;;;;;;;8.70;3.97;;;;;;;;;;5064227;28;20044;-71
2021/12/08 01:36:04;;;;;;;7.45;4.25;;;;;;;;;;5071336;28;20036;-71
2021/12/08 01:38:31;;;;;;;9.35;4.43;;;;;;;;;;5069797;28;20045;-72
2021/12/08 01:40:57;;;;;;;8.32;3.90;;;;;;;;;;5071174;28;20409;-71
2021/12/08 01:43:26;;;;;;;6.90;3.95;;;;;;;;;;5069016;28;20500;-71
2021/12/08 01:46:02;;;;;;;7.78;3.30;;;;;;;;;;5071322;28;20091;-71
2021/12/08 01:48:30;;;;;;;6.65;3.50;;;;;;;;;;5070301;28;20058;-72
2021/12/08 01:50:57;;;;;;;8.25;3.60;;;;;;;;;;5069886;28;20040;-71
2021/12/08 01:53:24;;;;;;;7.70;3.30;;;;;;;;;;5054452;28;20075;-71
2021/12/08 01:55:51;;;;;;;6.85;3.38;;;;;;;;;;5069379;28;20501;-71
2021/12/08 01:58:18;;;;;;;7.50;3.20;;;;;;;;;;5070471;28;20068;-71
2021/12/08 02:00:46;;;;;;;6.80;3.10;;;;;;;;;;5070719;28;20047;-71
2021/12/08 02:03:13;;;;;;;6.95;3.08;;;;;;;;;;5054044;28;20425;-71
2021/12/08 02:05:39;;;;;;;7.85;3.70;;;;;;;;;;5070629;28;20041;-71
2021/12/08 02:08:05;;;;;;;7.20;3.53;;;;;;;;;;5069016;28;20045;-71
2021/12/08 02:10:32;;;;;;;6.07;3.53;;;;;;;;;;5070471;28;20051;-71
2021/12/08 02:12:58;;;;;;;6.32;3.38;;;;;;;;;;5065309;28;20044;-71
2021/12/08 02:15:24;;;;;;;6.00;3.30;;;;;;;;;;5070847;28;20045;-71
2021/12/08 02:17:52;;;;;;;8.07;3.40;;;;;;;;;;5070410;28;20097;-71
2021/12/08 02:20:18;;;;;;;5.18;3.22;;;;;;;;;;5066931;28;20040;-71
2021/12/08 02:22:44;;;;;;;13.93;3.72;;;;;;;;;;5054947;28;20064;-71
2021/12/08 02:25:14;;;;;;;9.35;3.15;;;;;;;;;;5072196;28;20068;-70
2021/12/08 02:27:40;;;;;;;6.38;3.15;;;;;;;;;;5074081;28;20127;-70
2021/12/08 02:30:16;;;;;;;6.57;3.05;;;;;;;;;;5055593;28;20179;-70
2021/12/08 02:46:42;;;;;;;10.98;3.72;;;;;;;;;;5066834;28;20124;-70
2021/12/08 02:49:13;;;;;;;7.50;3.70;;;;;;;;;;5073548;28;20036;-70
2021/12/08 02:51:39;;;;;;;7.95;4.10;;;;;;;;;;5070514;28;20120;-70
2021/12/08 02:54:06;;;;;;;7.10;3.30;;;;;;;;;;5065899;28;20183;-70
2021/12/08 02:56:32;;;;;;;8.40;3.85;;;;;;;;;;5057701;28;20737;-70
2021/12/08 02:58:59;;;;;;;11.32;4.32;;;;;;;;;;5072285;28;20032;-71
2021/12/08 03:01:25;;;;;;;7.03;3.78;;;;;;;;;;5069249;28;20041;-71
2021/12/08 03:03:51;;;;;;;6.85;3.72;;;;;;;;;;5063501;28;20040;-71
2021/12/08 03:06:18;;;;;;;9.63;3.85;;;;;;;;;;5070364;28;20688;-71
2021/12/08 03:08:44;;;;;;;10.55;4.80;;;;;;;;;;5073396;28;20119;-70
2021/12/08 03:11:10;;;;;;;8.70;4.88;;;;;;;;;;5074075;28;20044;-71
2021/12/08 03:13:41;;;;;;;10.48;4.75;;;;;;;;;;5071726;28;20131;-70
2021/12/08 03:16:08;;;;;;;12.00;4.72;;;;;;;;;;5067483;28;20490;-70
2021/12/08 03:18:36;;;;;;;7.90;3.53;;;;;;;;;;5068444;28;20501;-70
2021/12/08 03:21:03;;;;;;;9.23;4.72;;;;;;;;;;5073162;28;20045;-70
2021/12/08 03:23:37;;;;;;;10.07;4.50;;;;;;;;;;5068741;28;20043;-71
2021/12/08 03:26:06;;;;;;;7.22;4.07;;;;;;;;;;5070172;28;20456;-70
2021/12/08 03:28:37;;;;;;;6.68;4.18;;;;;;;;;;5067995;28;20093;-70
2021/12/08 03:33:29;;;;;;;7.03;4.25;;;;;;;;;;5057082;28;20098;-70
2021/12/08 03:35:55;;;;;;;9.40;4.95;;;;;;;;;;5072628;28;20040;-70
2021/12/08 03:38:22;;;;;;;8.65;4.63;;;;;;;;;;5063986;28;20045;-70
2021/12/08 03:40:48;;;;;;;10.10;4.93;;;;;;;;;;5053128;28;20044;-70
2021/12/08 03:43:15;;;;;;;10.45;4.60;;;;;;;;;;5059537;28;20072;-71
2021/12/08 03:45:45;;;;;;;8.45;4.72;;;;;;;;;;5073112;28;20041;-70
2021/12/08 03:48:13;;;;;;;9.48;5.07;;;;;;;;;;5069808;28;20568;-70
2021/12/08 03:50:40;;;;;;;8.48;4.60;;;;;;;;;;5068462;28;20456;-70
2021/12/08 03:53:06;;;;;;;7.88;4.82;;;;;;;;;;5072713;28;20060;-70
2021/12/08 03:55:32;;;;;;;10.57;5.25;;;;;;;;;;5072938;28;20032;-70
2021/12/08 03:57:58;;;;;;;10.50;5.68;;;;;;;;;;5069022;28;20456;-71
2021/12/08 04:00:25;;;;;;;10.07;5.90;;;;;;;;;;5059790;28;20048;-70
2021/12/08 04:02:52;;;;;;;9.00;5.93;;;;;;;;;;5069337;28;20037;-70
2021/12/08 04:05:31;;;;;;;9.38;6.32;;;;;;;;;;5073075;28;20460;-70
2021/12/08 04:08:02;;;;;;;10.07;6.45;;;;;;;;;;5068869;28;20047;-71
2021/12/08 04:10:29;;;;;;;10.40;7.00;;;;;;;;;;5052587;28;20171;-71
2021/12/08 04:12:56;;;;;;;10.77;6.53;;;;;;;;;;5067732;28;20516;-70
2021/12/08 04:15:24;;;;;;;9.50;6.38;;;;;;;;;;5072167;28;20052;-71
2021/12/08 04:17:51;;;;;;;13.18;7.00;;;;;;;;;;5062446;28;20103;-70
2021/12/08 04:20:19;;;;;;;11.75;6.35;;;;;;;;;;5070845;28;20037;-70
2021/12/08 04:22:48;;;;;;;9.20;6.75;;;;;;;;;;5062176;28;20048;-70
2021/12/08 04:25:16;;;;;;;14.90;7.00;;;;;;;;;;5071964;28;20119;-70
2021/12/08 04:27:44;;;;;;;13.68;7.30;;;;;;;;;;5071204;28;20086;-70
2021/12/08 04:30:12;;;;;;;11.20;7.20;;;;;;;;;;5071614;28;20051;-70
2021/12/08 04:32:39;;;;;;;10.00;6.85;;;;;;;;;;5061968;28;20076;-70
2021/12/08 04:35:09;;;;;;;10.27;6.53;;;;;;;;;;5067462;28;20044;-70
2021/12/08 04:37:36;;;;;;;12.30;6.55;;;;;;;;;;5071460;28;20075;-70
2021/12/08 04:40:30;;;;;;;12.32;6.65;;;;;;;;;;5065582;28;20044;-70
2021/12/08 04:45:36;;;;;;;14.88;6.97;;;;;;;;;;5071748;28;20387;-70
2021/12/08 04:48:35;;;;;;;11.07;6.68;;;;;;;;;;5064183;28;20056;-70
2021/12/08 04:51:52;;;;;;;9.15;5.50;;;;;;;;;;5051556;28;20110;-71
2021/12/08 05:04:45;;;;;;;10.48;6.82;;;;;;;;;;5069883;28;20087;-71
2021/12/08 05:09:42;;;;;;;10.38;5.45;;;;;;;;;;5055695;28;20044;-70
2021/12/08 05:12:17;;;;;;;10.15;6.15;;;;;;;;;;5068756;28;20397;-70
2021/12/08 05:14:46;;;;;;;9.73;6.43;;;;;;;;;;5070627;28;20040;-71
2021/12/08 05:17:15;;;;;;;12.68;6.80;;;;;;;;;;5086197;22;20036;-64
2021/12/08 05:19:43;;;;;;;10.20;6.22;;;;;;;;;;5066522;28;20048;-64
2021/12/08 05:22:13;;;;;;;14.70;6.28;;;;;;;;;;5055750;28;20124;-64
2021/12/08 05:24:41;;;;;;;9.00;5.93;;;;;;;;;;5069847;28;20033;-64
2021/12/08 05:27:30;;;;;;;8.75;5.65;;;;;;;;;;5055638;28;20494;-64
2021/12/08 05:29:59;;;;;;;10.77;6.05;;;;;;;;;;5032087;28;20045;-64
2021/12/08 05:32:26;;;;;;;9.88;6.40;;;;;;;;;;5047917;28;20381;-64
2021/12/08 05:34:52;;;;;;;10.82;5.78;;;;;;;;;;5064287;28;20044;-64
2021/12/08 05:37:20;;;;;;;12.45;5.82;;;;;;;;;;5033372;28;20051;-64
2021/12/08 05:39:46;;;;;;;8.20;5.90;;;;;;;;;;5069177;28;20522;-64
2021/12/08 05:42:14;;;;;;;9.70;5.80;;;;;;;;;;5067679;28;20033;-64
2021/12/08 05:44:40;;;;;;;9.57;5.90;;;;;;;;;;5050397;28;20514;-63
2021/12/08 05:47:09;;;;;;;11.40;5.78;;;;;;;;;;5032373;28;20037;-63
2021/12/08 05:49:36;;;;;;;8.90;5.03;;;;;;;;;;5056074;28;20040;-63
2021/12/08 05:52:02;;;;;;;8.73;5.45;;;;;;;;;;5052562;28;20045;-63
2021/12/08 05:54:32;;;;;;;7.82;5.43;;;;;;;;;;5038187;28;20558;-63
2021/12/08 05:57:00;;;;;;;11.38;5.70;;;;;;;;;;5054961;28;20052;-63
2021/12/08 05:59:26;;;;;;;11.77;5.07;;;;;;;;;;5055030;28;20418;-63
2021/12/08 06:02:00;;;;;;;10.13;4.93;;;;;;;;;;5054898;28;20407;-64
2021/12/08 06:04:27;;;;;;;8.10;4.95;;;;;;;;;;5060070;28;20101;-63
2021/12/08 06:06:54;;;;;;;9.93;5.15;;;;;;;;;;5053906;28;20045;-63
2021/12/08 06:09:22;;;;;;;10.35;4.63;;;;;;;;;;5064394;28;20398;-64
2021/12/08 06:11:49;;;;;;;10.20;4.50;;;;;;;;;;5075113;28;20040;-64
2021/12/08 06:14:15;;;;;;;7.45;4.78;;;;;;;;;;5041520;28;20049;-63
2021/12/08 06:16:43;;;;;;;7.82;4.60;;;;;;;;;;5054169;28;20060;-63
2021/12/08 06:19:11;;;;;;;9.25;4.65;;;;;;;;;;5059308;28;20036;-64
2021/12/08 06:21:37;;;;;;;7.90;4.82;;;;;;;;;;5043062;28;20065;-63
2021/12/08 06:24:06;;;;;;;8.40;4.93;;;;;;;;;;5054492;28;20439;-64
2021/12/08 06:26:32;;;;;;;10.40;4.95;;;;;;;;;;5053354;28;20075;-64
2021/12/08 06:28:58;;;;;;;8.48;4.95;;;;;;;;;;5054366;28;20048;-63
2021/12/08 06:31:25;;;;;;;7.55;4.32;;;;;;;;;;5054419;28;20036;-63
2021/12/08 06:33:52;;;;;;;9.98;4.70;;;;;;;;;;5038150;28;20037;-63
2021/12/08 06:36:28;;;;;;;9.35;4.50;;;;;;;;;;5054138;28;20025;-63
2021/12/08 06:38:54;;;;;;;7.60;4.15;;;;;;;;;;5036828;28;20130;-64
2021/12/08 06:41:25;;;;;;;7.57;4.18;;;;;;;;;;5055965;28;20045;-63
2021/12/08 06:43:53;;;;;;;8.40;3.88;;;;;;;;;;5044839;28;20075;-63
2021/12/08 06:46:20;;;;;;;7.72;3.60;;;;;;;;;;5054450;28;20059;-63
2021/12/08 06:48:48;;;;;;;10.18;4.07;;;;;;;;;;5036061;28;20060;-64
2021/12/08 06:51:25;;;;;;;9.15;3.85;;;;;;;;;;5053615;28;20041;-63
2021/12/08 06:53:55;;;;;;;10.40;3.90;;;;;;;;;;5067708;28;20116;-64
2021/12/08 06:56:23;;;;;;;10.45;3.63;;;;;;;;;;5058965;28;20517;-63
2021/12/08 06:58:51;;;;;;;9.07;3.97;;;;;;;;;;5056536;28;20040;-63
2021/12/08 07:01:37;;;;;;;7.85;3.50;;;;;;;;;;5050992;28;20033;-63
2021/12/08 07:04:28;;;;;;;5.95;3.22;;;;;;;;;;5049199;28;20407;-63
2021/12/08 07:07:03;;;;;;;6.65;3.55;;;;;;;;;;5052226;28;20123;-63
2021/12/08 07:09:33;;;;;;;3.72;2.72;;;;;;;;;;5051983;28;20041;-63
2021/12/08 07:12:00;;;;;;;11.88;3.60;;;;;;;;;;5035160;28;20067;-63
2021/12/08 07:14:27;;;;;;;5.30;3.10;;;;;;;;;;5038999;28;20079;-63
2021/12/08 07:16:55;;;;;;;6.82;3.00;;;;;;;;;;5053091;28;20051;-63
2021/12/08 07:19:28;;;;;;;8.90;3.35;;;;;;;;;;5030743;28;20585;-63
2021/12/08 07:21:55;;;;;;;8.88;3.28;;;;;;;;;;5046669;28;20108;-63
2021/12/08 07:24:23;;;;;;;10.32;3.20;;;;;;;;;;5052349;28;20033;-63
2021/12/08 07:26:50;;;;;;;8.52;3.47;;;;;;;;;;5051525;28;20491;-63
2021/12/08 07:29:18;;;;;;;5.75;2.72;;;;;;;;;;5051019;28;20407;-63
2021/12/08 07:31:46;;;;;;;10.38;3.53;;;;;;;;;;5045942;28;21916;-63
2021/12/08 07:34:17;;;;;;;6.90;2.90;;;;;;;;;;5052860;28;20118;-64
2021/12/08 07:36:45;;;;;;;8.68;2.50;;;;;;;;;;5034499;28;20040;-64
2021/12/08 07:39:14;;;;;;;5.95;2.45;;;;;;;;;;5044189;28;20090;-63
2021/12/08 07:41:42;;;;;;;4.97;2.13;;;;;;;;;;5041188;28;20044;-63
2021/12/08 07:44:10;;;;;;;4.95;2.28;;;;;;;;;;5049075;28;20034;-63
2021/12/08 07:46:39;;;;;;;6.25;2.58;;;;;;;;;;5034216;28;20132;-64
2021/12/08 07:49:08;;;;;;;9.50;2.33;;;;;;;;;;5052418;28;20041;-64
2021/12/08 07:51:36;;;;;;;6.43;2.47;;;;;;;;;;5052808;28;20095;-64
2021/12/08 07:54:03;;;;;;;8.05;2.22;;;;;;;;;;5052218;28;20037;-65
2021/12/08 07:56:32;;;;;;;6.50;2.50;;;;;;;;;;5060540;28;20153;-65
2021/12/08 07:59:00;;;;;;;6.75;2.03;;;;;;;;;;5059987;28;20041;-65
2021/12/08 08:01:29;;;;;;;7.53;2.10;;;;;;;;;;5034109;28;20057;-64
2021/12/08 08:03:55;;;;;;;11.63;2.75;;;;;;;;;;5053205;28;20431;-64
2021/12/08 08:06:27;;;;;;;7.95;2.53;;;;;;;;;;5063523;28;20530;-64
2021/12/08 08:08:53;;;;;;;7.13;2.10;;;;;;;;;;5052554;28;20056;-64
2021/12/08 08:11:25;;;;;;;7.63;2.10;;;;;;;;;;5050228;28;20037;-64
2021/12/08 08:13:51;;;;;;;7.93;2.35;;;;;;;;;;5052059;28;20128;-64
2021/12/08 08:16:22;;;;;;;10.07;2.60;;;;;;;;;;5051191;28;20091;-64
2021/12/08 08:18:51;;;;;;;;;;;;;;;;;;5052568;28;20041;-64
2021/12/08 08:21:18;;;;;;;6.47;1.90;;;;;;;;;;5050874;28;19918;-64
2021/12/08 08:23:45;;;;;;;7.72;2.50;;;;;;;;;;5051941;28;20099;-64
2021/12/08 08:26:11;;;;;;;8.68;2.22;;;;;;;;;;5051888;28;20091;-64
2021/12/08 08:28:37;;;;;;;8.90;2.17;;;;;;;;;;5046979;28;20124;-64
2021/12/08 08:31:09;;;;;;;6.85;2.45;;;;;;;;;;5054807;28;20033;-64
2021/12/08 08:33:35;;;;;;;;;;;;;;;;;;5034309;28;20052;-64
2021/12/08 08:36:04;;;;;;;9.13;2.15;;;;;;;;;;5050209;28;19924;-64
2021/12/08 08:38:39;;;;;;;9.30;2.13;;;;;;;;;;5049632;28;20052;-64
2021/12/08 08:41:32;;;;;;;9.05;2.80;;;;;;;;;;5048058;28;20052;-64
2021/12/08 08:43:59;;;;;;;9.25;2.03;;;;;;;;;;5039132;28;20521;-64
2021/12/08 08:46:29;;;;;;;10.32;2.42;;;;;;;;;;5049916;28;20049;-64
2021/12/08 08:48:58;;;;;;;11.38;2.17;;;;;;;;;;5051871;28;20302;-65
2021/12/08 08:51:29;;;;;;;6.85;1.70;;;;;;;;;;5045542;28;20041;-64
2021/12/08 08:53:59;;;;;;;6.95;1.92;;;;;;;;;;5049262;28;20101;-64
2021/12/08 08:56:27;;;;;;;4.93;2.00;;;;;;;;;;5056105;28;20041;-64
2021/12/08 08:58:55;;;;;;;8.25;2.03;;;;;;;;;;5050298;28;20696;-64
2021/12/08 09:01:25;;;;;;;8.35;2.45;;;;;;;;;;5050308;28;20494;-65
2021/12/08 09:03:54;;;;;;;8.73;2.42;;;;;;;;;;5051283;28;20048;-64
2021/12/08 09:06:23;;;;;;;7.38;2.42;;;;;;;;;;5032765;28;20037;-65
2021/12/08 09:08:49;;;;;;;7.97;2.20;;;;;;;;;;5050871;28;20120;-65
2021/12/08 09:11:15;;;;;;;6.93;2.50;;;;;;;;;;5050974;28;20127;-65
2021/12/08 09:13:44;;;;;;;7.28;2.13;;;;;;;;;;5051884;28;20148;-65
2021/12/08 09:16:30;;;;;;;11.38;2.20;;;;;;;;;;5045751;28;20033;-65
2021/12/08 09:19:03;;;;;;;5.93;2.42;;;;;;;;;;5017217;28;20064;-64
2021/12/08 09:21:29;;;;;;;10.32;2.08;;;;;;;;;;5062745;28;20045;-65
2021/12/08 09:23:56;;;;;;;11.15;2.10;;;;;;;;;;5046305;28;20048;-65
2021/12/08 09:26:22;;;;;;;7.60;2.10;;;;;;;;;;5044074;28;20041;-64
2021/12/08 09:28:57;;;;;;;8.80;2.13;;;;;;;;;;5045725;28;20029;-64
2021/12/08 09:31:33;;;;;;;8.40;2.30;;;;;;;;;;5049413;28;20036;-65
2021/12/08 09:34:04;;;;;;;7.78;2.05;;;;;;;;;;5050407;28;20055;-65
2021/12/08 09:36:38;;;;;;;7.93;2.53;;;;;;;;;;5038040;28;20045;-65
2021/12/08 09:39:08;;;;;;;8.85;2.72;;;;;;;;;;5050835;28;20041;-64
2021/12/08 09:41:40;;;;;;;8.80;2.25;;;;;;;;;;5049810;28;20482;-64
2021/12/08 09:44:11;;;;;;;12.30;2.58;;;;;;;;;;5050261;28;20045;-65
2021/12/08 09:46:40;;;;;;;7.20;2.10;;;;;;;;;;5048260;28;20564;-64
2021/12/08 09:49:07;;;;;;;7.53;1.90;;;;;;;;;;5049708;28;20040;-64
2021/12/08 09:51:34;;;;;;;8.35;2.67;;;;;;;;;;5049412;28;20095;-64
2021/12/08 09:54:00;;;;;;;9.60;2.75;;;;;;;;;;5049213;28;20045;-65
2021/12/08 09:56:27;;;;;;;7.32;3.38;;;;;;;;;;5049814;28;20064;-65
2021/12/08 09:58:53;;;;;;;7.18;2.38;;;;;;;;;;5050149;28;20051;-65
2021/12/08 10:01:21;;;;;;;6.65;2.30;;;;;;;;;;5049069;28;20044;-65
2021/12/08 10:03:50;;;;;;;9.52;2.33;;;;;;;;;;5048491;28;20051;-65
2021/12/08 10:06:16;;;;;;;9.85;2.65;;;;;;;;;;5042751;28;20483;-65
2021/12/08 10:08:43;;;;;;;7.32;2.50;;;;;;;;;;5043213;28;20036;-64
2021/12/08 10:11:09;;;;;;;11.23;2.53;;;;;;;;;;5048535;28;20044;-65
2021/12/08 10:13:35;;;;;;;8.52;2.40;;;;;;;;;;5048724;28;20107;-65
2021/12/08 10:16:01;;;;;;;9.82;2.55;;;;;;;;;;5046792;28;20041;-65
2021/12/08 10:18:27;;;;;;;10.10;2.92;;;;;;;;;;5043072;28;20380;-65
2021/12/08 10:20:54;;;;;;;9.73;2.90;;;;;;;;;;5048705;28;20093;-65
2021/12/08 10:23:20;;;;;;;5.22;2.20;;;;;;;;;;5047552;28;20395;-65
2021/12/08 10:26:05;;;;;;;6.57;2.50;;;;;;;;;;5044521;28;20573;-65
2021/12/08 10:28:41;;;;;;;6.88;2.33;;;;;;;;;;5043498;28;20041;-64
2021/12/08 10:31:07;;;;;;;11.02;2.95;;;;;;;;;;5041429;28;20064;-64
2021/12/08 10:39:01;;;;;;;8.43;2.65;;;;;;;;;;5039506;28;20050;-64
2021/12/08 10:41:27;;;;;;;9.20;2.40;;;;;;;;;;5045303;28;20414;-65
2021/12/08 10:43:57;;;;;;;9.43;2.70;;;;;;;;;;5047347;28;20040;-64
2021/12/08 10:46:32;;;;;;;8.98;2.70;;;;;;;;;;5050685;28;20039;-65
2021/12/08 10:49:16;;;;;;;7.30;2.70;;;;;;;;;;5038539;28;20537;-65
2021/12/08 10:54:32;;;;;;;7.78;2.83;;;;;;;;;;5043124;28;20041;-65
2021/12/08 10:57:01;;;;;;;7.80;2.58;;;;;;;;;;5048662;28;20041;-65
2021/12/08 10:59:28;;;;;;;11.35;2.83;;;;;;;;;;5047800;28;20487;-65
2021/12/08 11:01:59;;;;;;;13.23;3.85;;;;;;;;;;5045802;28;20037;-65
2021/12/08 11:04:29;;;;;;;8.05;3.08;;;;;;;;;;5046077;28;20035;-65
2021/12/08 11:07:03;;;;;;;7.47;2.72;;;;;;;;;;5048277;28;20044;-64
2021/12/08 11:09:38;;;;;;;8.77;2.95;;;;;;;;;;5052169;28;20044;-64
2021/12/08 11:12:04;;;;;;;10.93;3.40;;;;;;;;;;5051830;28;20042;-63
2021/12/08 11:14:41;;;;;;;9.77;2.67;;;;;;;;;;5046508;28;20491;-64
2021/12/08 11:17:23;;;;;;;8.82;3.13;;;;;;;;;;5083916;22;20043;-70
2021/12/08 11:19:49;;;;;;;;;;;;;;;;;;5108770;28;20032;-70
2021/12/08 11:22:16;;;;;;;7.18;2.72;;;;;;;;;;5094163;28;19916;-71
2021/12/08 11:24:56;;;;;;;8.60;3.30;;;;;;;;;;5103753;28;20051;-71
2021/12/08 11:27:28;;;;;;;6.47;2.55;;;;;;;;;;5105375;28;20047;-69
2021/12/08 11:29:54;;;;;;;11.65;2.70;;;;;;;;;;5112920;28;20408;-69
2021/12/08 11:32:24;;;;;;;8.15;3.10;;;;;;;;;;5111288;28;20145;-69
2021/12/08 11:34:51;;;;;;;10.68;2.90;;;;;;;;;;5113083;28;20127;-68
2021/12/08 11:37:18;;;;;;;4.47;2.60;;;;;;;;;;5110043;28;20048;-70
2021/12/08 11:39:48;;;;;;;8.05;2.75;;;;;;;;;;5087536;27;20054;-69
2021/12/08 11:42:21;;;;;;;8.07;3.03;;;;;;;;;;5107686;27;20405;-69
2021/12/08 11:44:48;;;;;;;6.13;2.65;;;;;;;;;;5108922;27;20066;-69
2021/12/08 11:47:27;;;;;;;11.05;2.55;;;;;;;;;;5105242;28;20031;-69
2021/12/08 11:49:54;;;;;;;7.63;2.78;;;;;;;;;;5106975;28;20044;-69
2021/12/08 11:52:23;;;;;;;13.93;2.78;;;;;;;;;;5112107;28;20405;-68
2021/12/08 11:54:49;;;;;;;13.77;3.05;;;;;;;;;;5104644;28;20043;-69
2021/12/08 11:57:22;;;;;;;10.32;3.10;;;;;;;;;;5102621;28;20058;-69
2021/12/08 11:59:48;;;;;;;10.05;2.55;;;;;;;;;;5098322;28;20370;-68
2021/12/08 12:02:15;;;;;;;8.02;2.75;;;;;;;;;;5101045;28;20050;-69
2021/12/08 12:04:44;;;;;;;7.32;2.67;;;;;;;;;;5104051;28;20043;-69
2021/12/08 12:07:14;;;;;;;9.07;2.95;;;;;;;;;;5107882;27;20577;-68
2021/12/08 12:09:41;;;;;;;7.63;2.30;;;;;;;;;;5103445;28;20051;-69
2021/12/08 12:12:07;;;;;;;4.53;2.20;;;;;;;;;;5098669;28;20043;-69
2021/12/08 12:14:33;;;;;;;7.20;2.55;;;;;;;;;;5106749;28;20568;-69
2021/12/08 12:16:59;;;;;;;7.45;2.30;;;;;;;;;;5105891;28;20066;-71
2021/12/08 12:19:28;;;;;;;9.00;2.42;;;;;;;;;;5107542;28;20313;-70
2021/12/08 12:21:58;;;;;;;9.30;2.70;;;;;;;;;;5107341;27;20031;-70
2021/12/08 12:24:36;;;;;;;8.95;2.67;;;;;;;;;;5105574;28;20047;-70
2021/12/08 12:27:17;;;;;;;8.65;2.38;;;;;;;;;;5105638;28;20067;-69
2021/12/08 12:30:03;;;;;;;8.32;2.53;;;;;;;;;;5093514;28;20509;-69
2021/12/08 12:32:35;;;;;;;3.78;2.15;;;;;;;;;;5108643;28;20525;-70
2021/12/08 12:35:17;;;;;;;7.25;2.40;;;;;;;;;;5111624;28;20553;-70
2021/12/08 12:37:43;;;;;;;6.53;2.25;;;;;;;;;;5092937;28;20126;-69
2021/12/08 12:40:11;;;;;;;11.68;2.38;;;;;;;;;;5110711;28;20038;-70
2021/12/08 12:42:58;;;;;;;8.23;2.83;;;;;;;;;;5112517;28;20084;-70
2021/12/08 12:45:25;;;;;;;8.35;2.15;;;;;;;;;;5112386;28;20489;-70
2021/12/08 12:48:09;;;;;;;7.63;2.50;;;;;;;;;;5112208;28;20464;-70
2021/12/08 12:50:51;;;;;;;4.57;2.20;;;;;;;;;;5112006;28;20122;-70
2021/12/08 12:53:30;;;;;;;8.88;2.33;;;;;;;;;;5111970;28;20039;-70
2021/12/08 12:55:56;;;;;;;7.45;2.35;;;;;;;;;;5112457;28;20048;-70
2021/12/08 12:58:22;;;;;;;4.80;2.33;;;;;;;;;;5112005;28;20142;-70
2021/12/08 13:00:50;;;;;;;8.43;2.63;;;;;;;;;;5112092;28;20039;-70
2021/12/08 13:03:52;;;;;;;8.40;2.58;;;;;;;;;;5112456;28;20043;-70
2021/12/08 13:06:38;;;;;;;8.85;2.33;;;;;;;;;;5029139;28;20499;-70
2021/12/08 13:09:04;;;;;;;4.90;2.10;;;;;;;;;;5089740;28;20572;-70
2021/12/08 13:11:35;;;;;;;9.52;2.63;;;;;;;;;;5111175;28;20047;-69
2021/12/08 13:14:03;;;;;;;7.88;2.30;;;;;;;;;;5112177;28;20493;-69
2021/12/08 13:16:36;;;;;;;6.35;2.10;;;;;;;;;;5093871;28;20075;-69
2021/12/08 13:19:04;;;;;;;9.93;2.30;;;;;;;;;;5111617;28;20504;-69
2021/12/08 13:21:50;;;;;;;9.13;2.55;;;;;;;;;;5112003;28;20039;-69
2021/12/08 13:24:34;;;;;;;8.07;2.75;;;;;;;;;;5112045;28;20039;-69
2021/12/08 13:27:05;;;;;;;10.25;2.40;;;;;;;;;;5111407;28;20493;-69
2021/12/08 13:29:33;;;;;;;9.60;2.53;;;;;;;;;;5111807;28;20039;-69
2021/12/08 13:32:10;;;;;;;7.45;2.47;;;;;;;;;;5111848;28;20129;-69
2021/12/08 13:34:37;;;;;;;6.50;2.08;;;;;;;;;;5112233;28;20043;-69
2021/12/08 13:37:14;;;;;;;4.80;2.45;;;;;;;;;;5111888;28;20083;-69
2021/12/08 13:39:42;;;;;;;6.57;2.10;;;;;;;;;;5111421;28;20040;-69
2021/12/08 13:42:12;;;;;;;8.85;3.00;;;;;;;;;;5106850;28;20036;-69
2021/12/08 13:44:41;;;;;;;4.15;2.03;;;;;;;;;;5111740;28;20043;-69
2021/12/08 13:47:08;;;;;;;9.25;2.28;;;;;;;;;;5109967;28;20101;-68
2021/12/08 13:49:48;;;;;;;9.95;3.22;;;;;;;;;;5106510;28;20036;-69
2021/12/08 13:52:14;;;;;;;6.30;2.25;;;;;;;;;;5110474;28;20542;-69
2021/12/08 13:54:50;;;;;;;5.55;2.00;;;;;;;;;;5110777;28;20048;-69
2021/12/08 13:57:33;;;;;;;9.63;2.38;;;;;;;;;;5111759;28;20466;-69
2021/12/08 14:00:01;;;;;;;9.18;2.40;;;;;;;;;;5111256;28;20073;-68
2021/12/08 14:02:31;;;;;;;5.88;1.73;;;;;;;;;;5111142;28;20409;-69
2021/12/08 14:05:01;;;;;;;6.17;1.90;;;;;;;;;;5110894;28;20035;-69
2021/12/08 14:07:28;;;;;;;7.22;2.20;;;;;;;;;;5111439;28;20043;-69
2021/12/08 14:10:01;;;;;;;8.07;2.05;;;;;;;;;;5111359;28;20031;-69
2021/12/08 14:12:46;;;;;;;7.03;2.17;;;;;;;;;;5112316;28;20359;-69
2021/12/08 14:15:32;;;;;;;7.47;2.00;;;;;;;;;;5115205;28;20036;-69
2021/12/08 14:18:17;;;;;;;6.60;2.53;;;;;;;;;;5114485;28;20035;-69
2021/12/08 14:21:04;;;;;;;8.57;2.35;;;;;;;;;;5104022;28;20036;-69
2021/12/08 14:23:31;;;;;;;6.45;2.05;;;;;;;;;;5105632;28;20046;-70
2021/12/08 14:25:58;;;;;;;8.15;2.60;;;;;;;;;;5112508;28;20140;-69
2021/12/08 14:28:40;;;;;;;7.55;2.10;;;;;;;;;;5110436;28;20036;-70
2021/12/08 14:31:26;;;;;;;9.38;2.55;;;;;;;;;;5100801;28;20393;-69
2021/12/08 14:33:54;;;;;;;9.98;2.00;;;;;;;;;;5104636;28;20044;-70
2021/12/08 14:36:25;;;;;;;8.48;2.17;;;;;;;;;;5107786;28;20067;-69
2021/12/08 14:38:52;;;;;;;7.93;2.55;;;;;;;;;;5106187;27;20035;-69
2021/12/08 14:41:19;;;;;;;8.55;2.42;;;;;;;;;;5107564;27;20036;-69
2021/12/08 14:43:48;;;;;;;11.75;2.35;;;;;;;;;;5135659;27;20129;-69
2021/12/08 14:46:17;;;;;;;10.43;2.75;;;;;;;;;;5114820;27;20039;-69
2021/12/08 14:48:54;;;;;;;6.85;2.15;;;;;;;;;;5114891;27;20096;-69
2021/12/08 14:51:22;;;;;;;5.53;2.40;;;;;;;;;;5112389;27;20434;-69
2021/12/08 14:53:48;;;;;;;5.55;2.10;;;;;;;;;;5120216;27;20043;-69
2021/12/08 14:56:14;;;;;;;5.90;2.20;;;;;;;;;;5118626;27;20119;-69
2021/12/08 14:58:41;;;;;;;5.57;2.30;;;;;;;;;;5108709;28;20047;-69
2021/12/08 15:01:08;;;;;;;6.05;2.08;;;;;;;;;;5110167;27;20077;-67
2021/12/08 15:03:41;;;;;;;6.75;2.42;;;;;;;;;;5111565;28;20307;-68
2021/12/08 15:06:08;;;;;;;8.18;2.28;;;;;;;;;;5114229;28;20071;-69
2021/12/08 15:08:40;;;;;;;7.57;2.42;;;;;;;;;;5105063;28;20085;-68
2021/12/08 15:11:07;;;;;;;5.90;2.13;;;;;;;;;;5112187;28;20126;-67
2021/12/08 15:13:33;;;;;;;5.97;1.85;;;;;;;;;;5111006;28;20489;-66
2021/12/08 15:16:00;;;;;;;7.47;2.67;;;;;;;;;;5095503;28;20397;-66
2021/12/08 15:18:27;;;;;;;4.38;2.50;;;;;;;;;;5113512;28;20172;-67
2021/12/08 15:21:02;;;;;;;8.73;2.53;;;;;;;;;;5099666;28;21588;-68
2021/12/08 15:23:38;;;;;;;7.50;2.50;;;;;;;;;;5104549;28;20044;-68
2021/12/08 15:26:05;;;;;;;9.25;2.17;;;;;;;;;;5106719;28;20034;-68
2021/12/08 15:28:33;;;;;;;9.32;2.45;;;;;;;;;;5109661;28;20035;-68
2021/12/08 15:30:59;;;;;;;8.93;4.60;;;;;;;;;;5110540;28;20118;-69
2021/12/08 15:33:26;;;;;;;5.10;2.10;;;;;;;;;;5096362;28;20032;-68
2021/12/08 15:35:53;;;;;;;6.78;2.47;;;;;;;;;;5108201;28;20043;-69
2021/12/08 15:38:19;;;;;;;7.38;2.17;;;;;;;;;;5111217;28;20047;-68